createdAt,value
2022-10-09T00:00:45.014Z,100.00
2022-10-09T00:01:49.280Z,100.00
2022-10-09T00:02:51.970Z,100.00
2022-10-09T00:03:54.500Z,100.00
2022-10-09T00:04:56.656Z,100.00
2022-10-09T00:05:58.753Z,100.00
2022-10-09T00:07:01.401Z,100.00
2022-10-09T00:08:03.560Z,100.00
2022-10-09T00:09:05.698Z,100.00
2022-10-09T00:10:07.852Z,100.00
2022-10-09T00:11:09.974Z,100.00
2022-10-09T00:12:12.151Z,100.00
2022-10-09T00:13:14.280Z,100.00
2022-10-09T00:14:16.443Z,100.00
2022-10-09T00:15:18.563Z,100.00
2022-10-09T00:16:20.708Z,100.00
2022-10-09T00:17:22.849Z,100.00
2022-10-09T00:18:25.013Z,100.00
2022-10-09T00:19:27.139Z,100.00
2022-10-09T00:20:29.270Z,100.00
2022-10-09T00:21:31.396Z,100.00
2022-10-09T00:22:33.544Z,100.00
2022-10-09T00:23:35.668Z,100.00
2022-10-09T00:24:37.809Z,100.00
2022-10-09T00:25:39.974Z,100.00
2022-10-09T00:26:42.126Z,100.00
2022-10-09T00:27:44.344Z,100.00
2022-10-09T00:28:47.474Z,100.00
2022-10-09T00:29:50.138Z,100.00
2022-10-09T00:30:54.023Z,100.00
2022-10-09T00:31:57.184Z,100.00
2022-10-09T00:33:00.199Z,100.00
2022-10-09T00:34:02.346Z,100.00
2022-10-09T00:35:04.569Z,100.00
2022-10-09T00:36:06.707Z,100.00
2022-10-09T00:37:26.907Z,100.00
2022-10-09T00:38:29.296Z,100.00
2022-10-09T00:39:31.985Z,100.00
2022-10-09T00:40:34.341Z,100.00
2022-10-09T00:41:36.758Z,100.00
2022-10-09T00:42:39.160Z,100.00
2022-10-09T00:43:41.326Z,100.00
2022-10-09T00:44:43.466Z,100.00
2022-10-09T00:45:45.674Z,100.00
2022-10-09T00:46:47.977Z,100.00
2022-10-09T00:47:50.772Z,100.00
2022-10-09T00:49:11.675Z,100.00
2022-10-09T00:50:14.756Z,100.00
2022-10-09T00:51:17.346Z,100.00
2022-10-09T00:52:20.031Z,100.00
2022-10-09T00:53:22.742Z,100.00
2022-10-09T00:54:25.461Z,100.00
2022-10-09T00:55:28.354Z,100.00
2022-10-09T00:56:31.028Z,100.00
2022-10-09T00:57:33.715Z,100.00
2022-10-09T00:58:36.407Z,100.00
2022-10-09T00:59:39.402Z,100.00
2022-10-09T01:00:42.903Z,100.00
2022-10-09T01:01:46.013Z,100.00
2022-10-09T01:02:50.158Z,100.00
2022-10-09T01:03:53.471Z,100.00
2022-10-09T01:04:56.408Z,100.00
2022-10-09T01:05:59.392Z,100.00
2022-10-09T01:07:03.630Z,100.00
2022-10-09T01:08:06.569Z,100.00
2022-10-09T01:09:09.469Z,100.00
2022-10-09T01:10:13.979Z,100.00
2022-10-09T01:11:16.997Z,100.00
2022-10-09T01:12:19.681Z,100.00
2022-10-09T01:13:22.374Z,100.00
2022-10-09T01:14:24.960Z,100.00
2022-10-09T01:15:27.719Z,100.00
2022-10-09T01:16:31.307Z,100.00
2022-10-09T01:17:33.905Z,100.00
2022-10-09T01:18:36.598Z,100.00
2022-10-09T01:19:39.287Z,100.00
2022-10-09T01:20:42.328Z,100.00
2022-10-09T01:21:45.223Z,100.00
2022-10-09T01:22:48.418Z,100.00
2022-10-09T01:23:51.568Z,100.00
2022-10-09T01:24:54.458Z,100.00
2022-10-09T01:25:57.528Z,100.00
2022-10-09T01:27:01.043Z,100.00
2022-10-09T01:28:03.779Z,100.00
2022-10-09T01:29:06.318Z,100.00
2022-10-09T01:30:10.644Z,100.00
2022-10-09T01:32:23.801Z,100.00
2022-10-09T01:33:26.296Z,100.00
2022-10-09T01:34:28.782Z,100.00
2022-10-09T01:35:31.650Z,100.00
2022-10-09T01:36:34.986Z,100.00
2022-10-09T01:37:37.567Z,100.00
2022-10-09T01:38:40.311Z,100.00
2022-10-09T01:39:42.908Z,100.00
2022-10-09T01:40:46.214Z,100.00
2022-10-09T01:41:48.839Z,100.00
2022-10-09T01:42:51.701Z,100.00
2022-10-09T01:43:54.857Z,100.00
2022-10-09T01:44:57.440Z,100.00
2022-10-09T01:46:00.183Z,100.00
2022-10-09T01:47:03.237Z,100.00
2022-10-09T01:48:05.762Z,100.00
2022-10-09T01:49:08.425Z,100.00
2022-10-09T01:50:11.727Z,100.00
2022-10-09T01:51:14.415Z,100.00
2022-10-09T01:52:17.130Z,100.00
2022-10-09T01:53:20.053Z,100.00
2022-10-09T01:54:22.739Z,100.00
2022-10-09T01:55:25.434Z,100.00
2022-10-09T01:56:28.642Z,100.00
2022-10-09T01:57:31.402Z,100.00
2022-10-09T01:58:34.304Z,100.00
2022-10-09T01:59:36.987Z,100.00
2022-10-09T02:00:40.026Z,100.00
2022-10-09T02:01:43.366Z,100.00
2022-10-09T02:02:46.732Z,100.00
2022-10-09T02:03:50.156Z,100.00
2022-10-09T02:04:52.745Z,100.00
2022-10-09T02:05:55.463Z,100.00
2022-10-09T02:06:58.442Z,100.00
2022-10-09T02:08:01.160Z,100.00
2022-10-09T02:09:03.748Z,100.00
2022-10-09T02:10:07.765Z,100.00
2022-10-09T02:11:10.706Z,100.00
2022-10-09T02:12:13.598Z,100.00
2022-10-09T02:13:16.643Z,100.00
2022-10-09T02:14:19.260Z,100.00
2022-10-09T02:15:21.954Z,100.00
2022-10-09T02:16:25.331Z,100.00
2022-10-09T02:17:28.166Z,100.00
2022-10-09T02:18:30.903Z,100.00
2022-10-09T02:19:33.800Z,100.00
2022-10-09T02:20:36.793Z,100.00
2022-10-09T02:21:39.536Z,100.00
2022-10-09T02:22:42.173Z,100.00
2022-10-09T02:23:44.902Z,100.00
2022-10-09T02:24:47.812Z,100.00
2022-10-09T02:25:50.496Z,100.00
2022-10-09T02:26:53.494Z,100.00
2022-10-09T02:27:56.417Z,100.00
2022-10-09T02:28:59.130Z,100.00
2022-10-09T02:30:02.021Z,100.00
2022-10-09T02:31:05.310Z,100.00
2022-10-09T02:32:07.984Z,100.00
2022-10-09T02:33:10.672Z,100.00
2022-10-09T02:34:13.424Z,100.00
2022-10-09T02:35:16.016Z,100.00
2022-10-09T02:36:19.324Z,100.00
2022-10-09T02:37:22.019Z,100.00
2022-10-09T02:38:24.606Z,100.00
2022-10-09T02:39:27.348Z,100.00
2022-10-09T02:40:30.069Z,100.00
2022-10-09T02:41:32.960Z,100.00
2022-10-09T02:42:35.688Z,100.00
2022-10-09T02:43:38.285Z,100.00
2022-10-09T02:44:40.998Z,100.00
2022-10-09T02:45:44.038Z,100.00
2022-10-09T02:46:47.610Z,100.00
2022-10-09T02:47:50.539Z,100.00
2022-10-09T02:48:53.260Z,100.00
2022-10-09T02:49:55.895Z,100.00
2022-10-09T02:50:58.784Z,100.00
2022-10-09T02:52:01.476Z,100.00
2022-10-09T02:53:04.170Z,100.00
2022-10-09T02:54:06.797Z,100.00
2022-10-09T02:55:09.543Z,100.00
2022-10-09T02:56:13.459Z,100.00
2022-10-09T02:57:16.067Z,100.00
2022-10-09T02:58:18.753Z,100.00
2022-10-09T02:59:21.436Z,100.00
2022-10-09T03:00:25.377Z,100.00
2022-10-09T03:01:29.200Z,100.00
2022-10-09T03:02:32.249Z,100.00
2022-10-09T03:03:35.495Z,100.00
2022-10-09T03:04:38.105Z,100.00
2022-10-09T03:05:40.864Z,100.00
2022-10-09T03:06:43.762Z,100.00
2022-10-09T03:07:46.454Z,100.00
2022-10-09T03:08:49.093Z,100.00
2022-10-09T03:09:51.774Z,100.00
2022-10-09T03:10:54.820Z,100.00
2022-10-09T03:11:57.420Z,100.00
2022-10-09T03:13:00.113Z,100.00
2022-10-09T03:14:02.782Z,100.00
2022-10-09T03:15:05.498Z,100.00
2022-10-09T03:16:09.856Z,100.00
2022-10-09T03:17:12.990Z,100.00
2022-10-09T03:18:15.676Z,100.00
2022-10-09T03:19:18.269Z,100.00
2022-10-09T03:20:21.578Z,100.00
2022-10-09T03:21:24.310Z,100.00
2022-10-09T03:22:26.901Z,100.00
2022-10-09T03:23:29.597Z,100.00
2022-10-09T03:24:32.191Z,100.00
2022-10-09T03:25:34.886Z,100.00
2022-10-09T03:26:37.599Z,100.00
2022-10-09T03:27:40.295Z,100.00
2022-10-09T03:28:43.248Z,100.00
2022-10-09T03:29:46.190Z,100.00
2022-10-09T03:30:49.654Z,100.00
2022-10-09T03:31:53.513Z,100.00
2022-10-09T03:32:56.723Z,100.00
2022-10-09T03:33:59.316Z,100.00
2022-10-09T03:35:02.012Z,100.00
2022-10-09T03:36:05.040Z,100.00
2022-10-09T03:37:07.690Z,100.00
2022-10-09T03:38:10.615Z,100.00
2022-10-09T03:39:13.318Z,100.00
2022-10-09T03:40:16.625Z,100.00
2022-10-09T03:41:19.216Z,100.00
2022-10-09T03:42:21.926Z,100.00
2022-10-09T03:43:24.622Z,100.00
2022-10-09T03:44:27.230Z,100.00
2022-10-09T03:45:29.917Z,100.00
2022-10-09T03:46:33.243Z,100.00
2022-10-09T03:47:35.946Z,100.00
2022-10-09T03:48:38.950Z,100.00
2022-10-09T03:49:41.642Z,100.00
2022-10-09T03:50:44.840Z,100.00
2022-10-09T03:51:48.016Z,100.00
2022-10-09T03:52:51.237Z,100.00
2022-10-09T03:53:54.045Z,100.00
2022-10-09T03:54:56.722Z,100.00
2022-10-09T03:55:59.415Z,100.00
2022-10-09T03:57:02.725Z,100.00
2022-10-09T03:58:05.370Z,100.00
2022-10-09T03:59:07.948Z,100.00
2022-10-09T04:00:11.278Z,100.00
2022-10-09T04:01:14.017Z,100.00
2022-10-09T04:02:17.304Z,100.00
2022-10-09T04:03:20.269Z,100.00
2022-10-09T04:04:22.863Z,100.00
2022-10-09T04:05:25.674Z,100.00
2022-10-09T04:06:29.223Z,100.00
2022-10-09T04:07:32.122Z,100.00
2022-10-09T04:08:34.912Z,100.00
2022-10-09T04:09:37.802Z,100.00
2022-10-09T04:10:41.140Z,100.00
2022-10-09T04:11:43.719Z,100.00
2022-10-09T04:12:46.671Z,100.00
2022-10-09T04:13:49.727Z,100.00
2022-10-09T04:14:52.915Z,100.00
2022-10-09T04:15:55.653Z,100.00
2022-10-09T04:16:58.614Z,100.00
2022-10-09T04:18:01.236Z,100.00
2022-10-09T04:19:03.991Z,100.00
2022-10-09T04:20:08.305Z,100.00
2022-10-09T04:21:11.108Z,100.00
2022-10-09T04:22:13.982Z,100.00
2022-10-09T04:23:16.761Z,100.00
2022-10-09T04:24:19.543Z,100.00
2022-10-09T04:25:22.435Z,100.00
2022-10-09T04:26:25.887Z,100.00
2022-10-09T04:27:28.672Z,100.00
2022-10-09T04:28:31.446Z,100.00
2022-10-09T04:29:34.397Z,100.00
2022-10-09T04:30:37.281Z,100.00
2022-10-09T04:31:40.000Z,100.00
2022-10-09T04:32:42.944Z,100.00
2022-10-09T04:33:45.664Z,100.00
2022-10-09T04:34:48.280Z,100.00
2022-10-09T04:35:50.970Z,100.00
2022-10-09T04:36:54.881Z,100.00
2022-10-09T04:37:57.470Z,100.00
2022-10-09T04:39:00.170Z,100.00
2022-10-09T04:40:03.800Z,100.00
2022-10-09T04:41:06.491Z,100.00
2022-10-09T04:42:09.061Z,100.00
2022-10-09T04:43:11.745Z,100.00
2022-10-09T04:44:14.532Z,100.00
2022-10-09T04:45:17.483Z,100.00
2022-10-09T04:46:20.713Z,100.00
2022-10-09T04:47:23.376Z,100.00
2022-10-09T04:48:26.059Z,100.00
2022-10-09T04:49:28.743Z,100.00
2022-10-09T04:50:32.366Z,100.00
2022-10-09T04:51:35.266Z,100.00
2022-10-09T04:52:37.945Z,100.00
2022-10-09T04:53:40.571Z,100.00
2022-10-09T04:54:43.263Z,100.00
2022-10-09T04:55:46.009Z,100.00
2022-10-09T04:56:49.508Z,100.00
2022-10-09T04:57:52.195Z,100.00
2022-10-09T04:58:54.888Z,100.00
2022-10-09T04:59:57.570Z,100.00
2022-10-09T05:01:00.655Z,100.00
2022-10-09T05:02:04.525Z,100.00
2022-10-09T05:03:07.375Z,100.00
2022-10-09T05:04:10.358Z,100.00
2022-10-09T05:05:13.038Z,100.00
2022-10-09T05:06:16.697Z,100.00
2022-10-09T05:07:19.282Z,100.00
2022-10-09T05:08:22.031Z,100.00
2022-10-09T05:09:24.656Z,100.00
2022-10-09T05:10:27.339Z,100.00
2022-10-09T05:11:30.055Z,100.00
2022-10-09T05:12:32.645Z,100.00
2022-10-09T05:13:35.950Z,100.00
2022-10-09T05:14:38.633Z,100.00
2022-10-09T05:15:41.337Z,100.00
2022-10-09T05:17:11.929Z,100.00
2022-10-09T05:17:50.337Z,100.00
2022-10-09T05:18:52.918Z,100.00
2022-10-09T05:19:55.634Z,100.00
2022-10-09T05:20:58.629Z,100.00
2022-10-09T05:22:01.400Z,100.00
2022-10-09T05:23:04.418Z,100.00
2022-10-09T05:24:10.186Z,100.00
2022-10-09T05:25:11.647Z,100.00
2022-10-09T05:26:15.067Z,100.00
2022-10-09T05:27:17.688Z,100.00
2022-10-09T05:28:20.427Z,100.00
2022-10-09T05:29:23.390Z,100.00
2022-10-09T05:30:27.009Z,100.00
2022-10-09T05:31:29.642Z,100.00
2022-10-09T05:32:32.608Z,100.00
2022-10-09T05:33:35.332Z,100.00
2022-10-09T05:34:37.924Z,100.00
2022-10-09T05:35:40.607Z,100.00
2022-10-09T05:36:44.202Z,100.00
2022-10-09T05:37:46.922Z,100.00
2022-10-09T05:38:49.896Z,100.00
2022-10-09T05:39:52.493Z,100.00
2022-10-09T05:40:56.731Z,100.00
2022-10-09T05:41:59.412Z,100.00
2022-10-09T05:43:02.346Z,100.00
2022-10-09T05:44:05.028Z,100.00
2022-10-09T05:45:07.725Z,100.00
2022-10-09T05:46:11.985Z,100.00
2022-10-09T05:47:14.562Z,100.00
2022-10-09T05:48:17.286Z,100.00
2022-10-09T05:49:20.246Z,100.00
2022-10-09T05:50:23.859Z,100.00
2022-10-09T05:51:26.444Z,100.00
2022-10-09T05:52:29.134Z,100.00
2022-10-09T05:53:31.869Z,100.00
2022-10-09T05:54:34.864Z,100.00
2022-10-09T05:55:37.561Z,100.00
2022-10-09T05:56:40.760Z,100.00
2022-10-09T05:57:43.356Z,100.00
2022-10-09T05:58:46.060Z,100.00
2022-10-09T05:59:48.757Z,100.00
2022-10-09T06:00:52.228Z,100.00
2022-10-09T06:01:55.601Z,100.00
2022-10-09T06:02:58.867Z,100.00
2022-10-09T06:04:01.904Z,100.00
2022-10-09T06:05:04.505Z,100.00
2022-10-09T06:06:08.792Z,100.00
2022-10-09T06:07:11.379Z,100.00
2022-10-09T06:08:14.334Z,100.00
2022-10-09T06:09:17.077Z,100.00
2022-10-09T06:10:21.289Z,100.00
2022-10-09T06:11:24.109Z,100.00
2022-10-09T06:12:26.690Z,100.00
2022-10-09T06:13:29.342Z,100.00
2022-10-09T06:14:32.288Z,100.00
2022-10-09T06:15:34.876Z,100.00
2022-10-09T06:16:38.209Z,100.00
2022-10-09T06:17:41.185Z,100.00
2022-10-09T06:19:53.949Z,100.00
2022-10-09T06:20:57.204Z,100.00
2022-10-09T06:21:59.714Z,100.00
2022-10-09T06:23:02.504Z,100.00
2022-10-09T06:24:05.436Z,100.00
2022-10-09T06:25:08.291Z,100.00
2022-10-09T06:26:12.534Z,100.00
2022-10-09T06:27:15.329Z,100.00
2022-10-09T06:28:18.088Z,100.00
2022-10-09T06:29:21.036Z,100.00
2022-10-09T06:30:24.658Z,100.00
2022-10-09T06:31:27.330Z,100.00
2022-10-09T06:32:30.558Z,100.00
2022-10-09T06:33:33.243Z,100.00
2022-10-09T06:34:35.828Z,100.00
2022-10-09T06:35:38.535Z,100.00
2022-10-09T06:36:41.836Z,100.00
2022-10-09T06:37:44.533Z,100.00
2022-10-09T06:38:47.181Z,100.00
2022-10-09T06:39:49.864Z,100.00
2022-10-09T06:40:53.198Z,100.00
2022-10-09T06:41:56.089Z,100.00
2022-10-09T06:42:58.787Z,100.00
2022-10-09T06:44:01.485Z,100.00
2022-10-09T06:45:04.064Z,100.00
2022-10-09T06:46:08.572Z,100.00
2022-10-09T06:47:11.297Z,100.00
2022-10-09T06:48:13.994Z,100.00
2022-10-09T06:49:16.594Z,100.00
2022-10-09T06:50:19.900Z,100.00
2022-10-09T06:51:22.632Z,100.00
2022-10-09T06:52:25.585Z,100.00
2022-10-09T06:53:28.192Z,100.00
2022-10-09T06:54:30.877Z,100.00
2022-10-09T06:55:33.378Z,100.00
2022-10-09T06:56:36.239Z,100.00
2022-10-09T06:57:38.931Z,100.00
2022-10-09T06:58:41.528Z,100.00
2022-10-09T06:59:44.218Z,100.00
2022-10-09T07:00:47.518Z,100.00
2022-10-09T07:01:50.559Z,100.00
2022-10-09T07:02:54.046Z,100.00
2022-10-09T07:03:57.737Z,100.00
2022-10-09T07:05:00.665Z,100.00
2022-10-09T07:06:04.920Z,100.00
2022-10-09T07:07:07.539Z,100.00
2022-10-09T07:08:10.232Z,100.00
2022-10-09T07:09:12.826Z,100.00
2022-10-09T07:10:19.554Z,100.00
2022-10-09T07:11:21.606Z,100.00
2022-10-09T07:12:24.644Z,100.00
2022-10-09T07:13:27.550Z,100.00
2022-10-09T07:14:30.282Z,100.00
2022-10-09T07:15:32.921Z,100.00
2022-10-09T07:16:36.152Z,100.00
2022-10-09T07:17:38.897Z,100.00
2022-10-09T07:18:41.788Z,100.00
2022-10-09T07:19:44.587Z,100.00
2022-10-09T07:20:48.094Z,100.00
2022-10-09T07:23:00.749Z,100.00
2022-10-09T07:24:03.458Z,100.00
2022-10-09T07:25:06.414Z,100.00
2022-10-09T07:26:10.137Z,100.00
2022-10-09T07:27:13.029Z,100.00
2022-10-09T07:28:16.110Z,100.00
2022-10-09T07:29:18.988Z,100.00
2022-10-09T07:30:22.243Z,100.00
2022-10-09T07:31:25.272Z,100.00
2022-10-09T07:32:28.548Z,100.00
2022-10-09T07:33:31.175Z,100.00
2022-10-09T07:34:33.866Z,100.00
2022-10-09T07:35:36.452Z,100.00
2022-10-09T07:36:39.446Z,100.00
2022-10-09T07:37:42.182Z,100.00
2022-10-09T07:38:44.831Z,100.00
2022-10-09T07:39:47.526Z,100.00
2022-10-09T07:40:50.124Z,100.00
2022-10-09T07:41:52.879Z,100.00
2022-10-09T07:42:55.470Z,100.00
2022-10-09T07:43:58.188Z,100.00
2022-10-09T07:45:00.813Z,100.00
2022-10-09T07:46:04.470Z,100.00
2022-10-09T07:47:07.429Z,100.00
2022-10-09T07:48:10.022Z,100.00
2022-10-09T07:49:12.766Z,100.00
2022-10-09T07:50:16.074Z,100.00
2022-10-09T07:51:18.982Z,100.00
2022-10-09T07:52:21.667Z,100.00
2022-10-09T07:53:24.364Z,100.00
2022-10-09T07:54:26.999Z,100.00
2022-10-09T07:55:29.687Z,100.00
2022-10-09T07:56:33.294Z,100.00
2022-10-09T07:57:35.888Z,100.00
2022-10-09T07:58:38.589Z,100.00
2022-10-09T07:59:41.302Z,100.00
2022-10-09T08:00:44.904Z,100.00
2022-10-09T08:01:47.854Z,100.00
2022-10-09T08:02:51.508Z,100.00
2022-10-09T08:03:54.859Z,100.00
2022-10-09T08:04:57.693Z,100.00
2022-10-09T08:06:00.689Z,100.00
2022-10-09T08:07:04.931Z,100.00
2022-10-09T08:08:07.561Z,100.00
2022-10-09T08:09:10.157Z,100.00
2022-10-09T08:10:13.490Z,100.00
2022-10-09T08:11:16.181Z,100.00
2022-10-09T08:12:18.676Z,100.00
2022-10-09T08:13:21.509Z,100.00
2022-10-09T08:14:24.193Z,100.00
2022-10-09T08:15:26.857Z,100.00
2022-10-09T08:16:29.816Z,100.00
2022-10-09T08:17:32.505Z,100.00
2022-10-09T08:18:35.097Z,100.00
2022-10-09T08:19:37.792Z,100.00
2022-10-09T08:20:40.576Z,100.00
2022-10-09T08:21:43.229Z,100.00
2022-10-09T08:22:45.898Z,100.00
2022-10-09T08:23:49.148Z,100.00
2022-10-09T08:24:51.832Z,100.00
2022-10-09T08:25:54.496Z,100.00
2022-10-09T08:26:58.003Z,100.00
2022-10-09T08:28:00.737Z,100.00
2022-10-09T08:29:03.331Z,100.00
2022-10-09T08:30:07.581Z,100.00
2022-10-09T08:31:10.546Z,100.00
2022-10-09T08:32:13.314Z,100.00
2022-10-09T08:33:16.376Z,100.00
2022-10-09T08:34:18.905Z,100.00
2022-10-09T08:35:21.848Z,100.00
2022-10-09T08:36:25.221Z,100.00
2022-10-09T08:37:27.823Z,100.00
2022-10-09T08:38:46.541Z,100.00
2022-10-09T08:39:34.992Z,100.00
2022-10-09T08:40:37.610Z,100.00
2022-10-09T08:41:40.361Z,100.00
2022-10-09T08:42:42.963Z,100.00
2022-10-09T08:43:45.708Z,100.00
2022-10-09T08:44:48.303Z,100.00
2022-10-09T08:45:50.999Z,100.00
2022-10-09T08:46:54.688Z,100.00
2022-10-09T08:47:57.559Z,100.00
2022-10-09T08:49:00.292Z,100.00
2022-10-09T08:50:03.210Z,100.00
2022-10-09T08:51:05.891Z,100.00
2022-10-09T08:52:08.668Z,100.00
2022-10-09T08:53:11.594Z,98.91
2022-10-09T08:54:14.481Z,98.41
2022-10-09T08:55:16.981Z,97.76
2022-10-09T08:56:20.183Z,98.71
2022-10-09T08:57:22.897Z,97.17
2022-10-09T08:58:25.752Z,96.76
2022-10-09T08:59:28.445Z,95.90
2022-10-09T09:00:31.456Z,94.62
2022-10-09T09:01:34.459Z,93.64
2022-10-09T09:02:37.435Z,94.15
2022-10-09T09:03:40.635Z,94.66
2022-10-09T09:04:43.626Z,93.60
2022-10-09T09:05:46.736Z,91.83
2022-10-09T09:06:50.974Z,91.84
2022-10-09T09:07:53.814Z,88.85
2022-10-09T09:08:56.824Z,87.39
2022-10-09T09:09:59.829Z,88.25
2022-10-09T09:11:04.065Z,84.43
2022-10-09T09:12:06.950Z,87.42
2022-10-09T09:13:09.973Z,84.69
2022-10-09T09:14:12.877Z,82.17
2022-10-09T09:15:15.884Z,81.10
2022-10-09T09:16:19.248Z,83.12
2022-10-09T09:17:22.112Z,82.09
2022-10-09T09:18:24.828Z,82.58
2022-10-09T09:19:27.511Z,83.69
2022-10-09T09:21:42.854Z,81.87
2022-10-09T09:22:45.800Z,83.55
2022-10-09T09:23:48.981Z,84.34
2022-10-09T09:24:51.864Z,83.70
2022-10-09T09:25:54.357Z,84.19
2022-10-09T09:26:57.272Z,84.72
2022-10-09T09:27:59.890Z,84.63
2022-10-09T09:29:02.681Z,84.26
2022-10-09T09:30:06.470Z,81.56
2022-10-09T09:31:09.183Z,84.36
2022-10-09T09:32:12.139Z,85.55
2022-10-09T09:33:14.769Z,85.00
2022-10-09T09:34:17.519Z,83.76
2022-10-09T09:35:20.106Z,83.58
2022-10-09T09:36:24.062Z,81.37
2022-10-09T09:37:26.695Z,80.92
2022-10-09T09:38:29.502Z,81.31
2022-10-09T09:40:46.748Z,82.69
2022-10-09T09:41:47.879Z,82.43
2022-10-09T09:42:51.011Z,82.81
2022-10-09T09:43:54.379Z,83.07
2022-10-09T09:44:57.019Z,82.94
2022-10-09T09:45:59.713Z,83.48
2022-10-09T09:47:03.032Z,82.88
2022-10-09T09:48:05.623Z,83.86
2022-10-09T09:49:09.565Z,83.19
2022-10-09T09:50:35.060Z,83.48
2022-10-09T09:51:28.081Z,84.34
2022-10-09T09:52:21.972Z,81.69
2022-10-09T09:53:24.309Z,81.55
2022-10-09T09:54:26.646Z,80.63
2022-10-09T09:55:29.009Z,80.53
2022-10-09T09:56:42.983Z,81.10
2022-10-09T09:57:35.630Z,78.14
2022-10-09T09:58:38.009Z,79.47
2022-10-09T09:59:40.366Z,77.74
2022-10-09T10:00:42.798Z,79.21
2022-10-09T10:01:45.259Z,80.40
2022-10-09T10:02:48.045Z,79.78
2022-10-09T10:03:50.901Z,80.39
2022-10-09T10:04:53.293Z,81.20
2022-10-09T10:05:55.811Z,81.46
2022-10-09T10:06:58.151Z,81.47
2022-10-09T10:08:00.744Z,82.41
2022-10-09T10:09:03.634Z,82.29
2022-10-09T10:10:06.936Z,81.63
2022-10-09T10:11:09.568Z,81.88
2022-10-09T10:12:12.301Z,81.83
2022-10-09T10:13:14.900Z,81.58
2022-10-09T10:14:17.615Z,80.13
2022-10-09T10:15:20.612Z,80.61
2022-10-09T10:16:24.682Z,81.26
2022-10-09T10:17:27.794Z,82.02
2022-10-09T10:18:30.388Z,82.50
2022-10-09T10:19:33.075Z,80.49
2022-10-09T10:20:36.394Z,79.92
2022-10-09T10:21:39.127Z,80.41
2022-10-09T10:22:41.721Z,81.03
2022-10-09T10:23:44.404Z,81.93
2022-10-09T10:24:47.087Z,82.48
2022-10-09T10:25:50.077Z,83.46
2022-10-09T10:26:53.479Z,82.36
2022-10-09T10:27:56.023Z,83.00
2022-10-09T10:28:58.718Z,82.74
2022-10-09T10:30:01.311Z,82.61
2022-10-09T10:31:04.059Z,81.69
2022-10-09T10:32:07.353Z,82.07
2022-10-09T10:33:11.601Z,80.83
2022-10-09T10:34:15.880Z,81.42
2022-10-09T10:35:18.217Z,81.49
2022-10-09T10:36:20.552Z,80.67
2022-10-09T10:37:22.928Z,82.23
2022-10-09T10:38:25.266Z,83.79
2022-10-09T10:39:27.613Z,80.50
2022-10-09T10:40:29.950Z,80.41
2022-10-09T10:41:32.289Z,80.14
2022-10-09T10:42:36.565Z,79.90
2022-10-09T10:43:38.711Z,80.47
2022-10-09T10:44:40.889Z,80.21
2022-10-09T10:45:43.034Z,83.18
2022-10-09T10:46:45.220Z,82.84
2022-10-09T10:47:47.799Z,82.51
2022-10-09T10:48:50.294Z,82.06
2022-10-09T10:49:52.544Z,82.01
2022-10-09T10:50:54.697Z,80.62
2022-10-09T10:51:56.889Z,80.67
2022-10-09T10:52:59.131Z,80.54
2022-10-09T10:54:01.287Z,79.62
2022-10-09T10:55:03.513Z,78.98
2022-10-09T10:56:05.705Z,77.84
2022-10-09T10:57:07.812Z,79.22
2022-10-09T10:58:10.037Z,79.25
2022-10-09T10:59:12.243Z,81.67
2022-10-09T11:00:14.490Z,81.61
2022-10-09T11:01:17.045Z,79.99
2022-10-09T11:02:19.804Z,78.82
2022-10-09T11:03:22.374Z,79.68
2022-10-09T11:04:25.052Z,78.54
2022-10-09T11:05:27.496Z,79.24
2022-10-09T11:06:30.047Z,79.62
2022-10-09T11:07:33.049Z,78.50
2022-10-09T11:08:35.722Z,78.57
2022-10-09T11:09:38.686Z,78.46
2022-10-09T11:10:41.343Z,79.12
2022-10-09T11:11:43.794Z,79.18
2022-10-09T11:12:48.542Z,78.55
2022-10-09T11:13:50.825Z,79.20
2022-10-09T11:14:53.277Z,78.15
2022-10-09T11:15:55.807Z,78.49
2022-10-09T11:16:58.624Z,79.11
2022-10-09T11:18:01.079Z,80.21
2022-10-09T11:19:03.661Z,81.01
2022-10-09T11:20:06.934Z,80.23
2022-10-09T11:21:09.382Z,80.69
2022-10-09T11:22:11.843Z,79.82
2022-10-09T11:23:14.291Z,80.47
2022-10-09T11:24:16.805Z,81.15
2022-10-09T11:25:19.266Z,81.91
2022-10-09T11:26:21.709Z,81.18
2022-10-09T11:28:34.295Z,79.26
2022-10-09T11:29:36.834Z,79.65
2022-10-09T11:30:39.311Z,80.23
2022-10-09T11:31:41.827Z,80.71
2022-10-09T11:32:44.618Z,80.56
2022-10-09T11:33:47.058Z,80.65
2022-10-09T11:34:50.143Z,80.94
2022-10-09T11:35:52.655Z,80.57
2022-10-09T11:36:55.574Z,82.57
2022-10-09T11:37:58.172Z,83.07
2022-10-09T11:39:01.125Z,81.08
2022-10-09T11:40:03.715Z,80.48
2022-10-09T11:42:16.303Z,80.98
2022-10-09T11:43:18.748Z,82.08
2022-10-09T11:44:21.245Z,81.91
2022-10-09T11:45:23.829Z,83.39
2022-10-09T11:46:26.537Z,84.08
2022-10-09T11:47:29.062Z,82.74
2022-10-09T11:48:31.510Z,82.88
2022-10-09T11:49:33.950Z,83.82
2022-10-09T11:50:36.439Z,84.09
2022-10-09T11:51:38.879Z,85.62
2022-10-09T11:52:41.568Z,85.19
2022-10-09T11:53:44.074Z,85.13
2022-10-09T11:54:46.647Z,83.46
2022-10-09T11:55:49.469Z,83.78
2022-10-09T11:56:52.007Z,83.71
2022-10-09T11:57:54.459Z,84.79
2022-10-09T11:58:56.911Z,86.04
2022-10-09T11:59:59.360Z,85.37
2022-10-09T12:01:02.174Z,86.48
2022-10-09T12:02:04.770Z,85.50
2022-10-09T12:03:07.261Z,86.80
2022-10-09T12:04:09.703Z,85.84
2022-10-09T12:05:12.146Z,85.64
2022-10-09T12:06:14.822Z,86.54
2022-10-09T12:07:17.264Z,87.25
2022-10-09T12:08:19.953Z,87.88
2022-10-09T12:09:22.593Z,88.36
2022-10-09T12:10:25.038Z,90.15
2022-10-09T12:11:27.506Z,92.03
2022-10-09T12:12:29.956Z,91.84
2022-10-09T12:13:32.391Z,92.24
2022-10-09T12:14:34.830Z,91.72
2022-10-09T12:15:37.315Z,91.83
2022-10-09T12:16:39.832Z,90.88
2022-10-09T12:17:42.347Z,90.17
2022-10-09T12:18:44.792Z,89.28
2022-10-09T12:19:47.278Z,88.42
2022-10-09T12:20:49.718Z,87.82
2022-10-09T12:21:52.512Z,87.69
2022-10-09T12:23:14.337Z,88.11
2022-10-09T12:23:59.340Z,89.55
2022-10-09T12:25:01.785Z,90.55
2022-10-09T12:26:04.327Z,90.07
2022-10-09T12:27:06.796Z,90.07
2022-10-09T12:28:09.251Z,91.07
2022-10-09T12:29:11.777Z,91.58
2022-10-09T12:30:14.355Z,91.66
2022-10-09T12:31:17.156Z,91.46
2022-10-09T12:32:19.784Z,90.83
2022-10-09T12:33:22.318Z,92.35
2022-10-09T12:34:24.772Z,91.73
2022-10-09T12:35:27.252Z,92.41
2022-10-09T12:36:29.713Z,92.64
2022-10-09T12:37:32.251Z,92.46
2022-10-09T12:38:34.836Z,91.79
2022-10-09T12:39:37.283Z,92.80
2022-10-09T12:40:39.736Z,95.40
2022-10-09T12:41:42.318Z,94.25
2022-10-09T12:42:45.046Z,94.41
2022-10-09T12:43:47.671Z,95.36
2022-10-09T12:44:50.198Z,95.37
2022-10-09T12:45:52.719Z,94.87
2022-10-09T12:46:55.304Z,94.18
2022-10-09T12:47:57.770Z,94.79
2022-10-09T12:49:00.261Z,95.03
2022-10-09T12:50:02.753Z,94.82
2022-10-09T12:51:05.202Z,94.94
2022-10-09T12:52:07.657Z,95.70
2022-10-09T12:53:10.183Z,95.17
2022-10-09T12:54:12.624Z,94.49
2022-10-09T12:55:15.067Z,94.10
2022-10-09T12:56:17.710Z,94.61
2022-10-09T12:57:23.998Z,93.47
2022-10-09T12:58:24.607Z,93.64
2022-10-09T12:59:27.077Z,92.31
2022-10-09T13:00:29.765Z,92.32
2022-10-09T13:01:32.261Z,92.43
2022-10-09T13:02:35.146Z,91.43
2022-10-09T13:03:38.058Z,92.51
2022-10-09T13:04:40.527Z,92.86
2022-10-09T13:05:42.983Z,92.99
2022-10-09T13:06:45.805Z,91.99
2022-10-09T13:07:48.559Z,92.75
2022-10-09T13:08:51.158Z,92.60
2022-10-09T13:09:53.640Z,91.90
2022-10-09T13:10:56.098Z,92.46
2022-10-09T13:11:58.548Z,93.14
2022-10-09T13:13:01.027Z,94.11
2022-10-09T13:14:04.173Z,93.94
2022-10-09T13:15:06.620Z,94.34
2022-10-09T13:16:09.073Z,95.77
2022-10-09T13:17:11.576Z,96.90
2022-10-09T13:18:14.062Z,97.44
2022-10-09T13:19:16.531Z,97.96
2022-10-09T13:20:19.236Z,97.80
2022-10-09T13:21:21.719Z,99.45